If you wish to contribute or participate in the discussions about articles you are invited to join SKYbrary as a registered user

 Actions

Rodez-Marcillac Airport

From SKYbrary Wiki

LFCR /
Revision as of 20:15, 16 February 2015 by Timo.Kouwenhoven (talk | contribs) (LF Airports CSV import)
(diff) ← Older revision | Latest revision (diff) | Newer revision → (diff)
Airport
ICAO: LFCR – IATA: RDZ
Summary
Name Rodez-Marcillac Airport
Region Europe
Territory France FR.gif
Location , Midi-Pyrenees
Serving Rodez
Elevation 582.168 m
1,910 ft
1,910 ft582.168 m
Type medium airport
Coordinates 44° 24' 28.33" N, 2° 28' 57.62" E
Runways
Designator Length Width Surface ROPS
13/31 2040 m6,692.913 ft
45 m147.638 ft
ASP /


METAR
Observation LFCR 130900Z AUTO 13023KT 9999 FEW022 19/14 Q1017 TEMPO 12022G38KT
Station Rodez
Date/Time 13 October 2019 09:00:00
Wind direction 130°
Wind speed 23 kts
Lowest cloud amount few clouds
Temperature 19°C
Dew point 14°C
Humidity 72%
QNH 1017 hPa
Weather condition n/a